createdAt,value
2022-11-08T00:00:44.494Z,11.55
2022-11-08T00:03:11.850Z,11.46
2022-11-08T00:05:57.760Z,11.47
2022-11-08T00:08:43.761Z,11.44
2022-11-08T00:11:29.733Z,11.40
2022-11-08T00:14:00.116Z,11.36
2022-11-08T00:16:28.958Z,11.36
2022-11-08T00:18:56.203Z,11.28
2022-11-08T00:21:23.436Z,11.32
2022-11-08T00:23:50.631Z,11.28
2022-11-08T00:26:18.293Z,11.21
2022-11-08T00:28:45.454Z,11.20
2022-11-08T00:31:12.588Z,11.19
2022-11-08T00:33:39.726Z,11.15
2022-11-08T00:36:06.930Z,11.14
2022-11-08T00:38:34.311Z,11.08
2022-11-08T00:41:01.467Z,11.01
2022-11-08T00:43:28.621Z,11.04
2022-11-08T00:45:55.778Z,10.95
2022-11-08T00:48:22.941Z,10.99
2022-11-08T00:50:50.102Z,10.97
2022-11-08T00:53:17.223Z,10.94
2022-11-08T00:55:44.408Z,10.91
2022-11-08T00:58:11.509Z,10.91
2022-11-08T01:00:38.652Z,10.86
2022-11-08T01:03:21.263Z,10.80
2022-11-08T01:05:50.370Z,10.84
2022-11-08T01:08:19.258Z,10.83
2022-11-08T01:10:49.333Z,10.77
2022-11-08T01:13:17.495Z,10.81
2022-11-08T01:15:46.095Z,10.79
2022-11-08T01:18:16.107Z,10.78
2022-11-08T01:20:45.120Z,10.74
2022-11-08T01:23:13.833Z,10.74
2022-11-08T01:25:43.735Z,10.71
2022-11-08T01:28:12.139Z,10.67
2022-11-08T01:30:41.081Z,10.62
2022-11-08T01:33:08.103Z,10.63
2022-11-08T01:35:38.396Z,10.62
2022-11-08T01:38:07.060Z,10.55
2022-11-08T01:40:41.711Z,10.56
2022-11-08T01:43:30.085Z,10.52
2022-11-08T01:46:15.831Z,10.52
2022-11-08T01:48:51.054Z,10.48
2022-11-08T01:51:22.673Z,10.51
2022-11-08T01:53:50.913Z,10.51
2022-11-08T01:56:20.435Z,10.52
2022-11-08T01:58:50.743Z,10.53
2022-11-08T02:01:17.871Z,10.55
2022-11-08T02:03:45.079Z,10.54
2022-11-08T02:06:13.086Z,10.53
2022-11-08T02:08:42.007Z,10.52
2022-11-08T02:11:12.688Z,10.55
2022-11-08T02:13:40.498Z,10.52
2022-11-08T02:16:15.480Z,10.52
2022-11-08T02:18:45.435Z,10.52
2022-11-08T02:21:28.631Z,10.51
2022-11-08T02:24:00.701Z,10.52
2022-11-08T02:26:35.573Z,10.47
2022-11-08T02:29:25.846Z,10.51
2022-11-08T02:31:53.795Z,10.49
2022-11-08T02:34:42.987Z,10.50
2022-11-08T02:37:12.302Z,10.47
2022-11-08T02:39:39.430Z,10.41
2022-11-08T02:42:06.465Z,10.46
2022-11-08T02:44:33.500Z,10.42
2022-11-08T02:47:00.521Z,10.40
2022-11-08T02:49:27.527Z,10.35
2022-11-08T02:51:54.563Z,10.36
2022-11-08T02:54:21.640Z,10.30
2022-11-08T02:56:48.732Z,10.32
2022-11-08T02:59:15.986Z,10.34
2022-11-08T03:01:43.285Z,10.32
2022-11-08T03:04:10.798Z,10.26
2022-11-08T03:06:37.884Z,10.29
2022-11-08T03:09:06.222Z,10.27
2022-11-08T03:11:33.671Z,10.23
2022-11-08T03:14:00.735Z,10.22
2022-11-08T03:16:27.954Z,10.20
2022-11-08T03:18:55.005Z,10.17
2022-11-08T03:21:22.068Z,10.22
2022-11-08T03:23:49.141Z,10.20
2022-11-08T03:26:17.302Z,10.18
2022-11-08T03:28:44.429Z,10.20
2022-11-08T03:31:11.496Z,10.22
2022-11-08T03:33:38.551Z,10.17
2022-11-08T03:36:05.727Z,10.19
2022-11-08T03:38:32.770Z,10.20
2022-11-08T03:40:59.847Z,10.20
2022-11-08T03:43:26.905Z,10.23
2022-11-08T03:45:53.942Z,10.21
2022-11-08T03:48:23.432Z,10.18
2022-11-08T03:50:51.837Z,10.21
2022-11-08T03:53:18.933Z,10.14
2022-11-08T03:55:45.971Z,10.14
2022-11-08T03:58:13.014Z,10.09
2022-11-08T04:00:40.268Z,10.10
2022-11-08T04:03:07.312Z,10.06
2022-11-08T04:05:34.561Z,9.93
2022-11-08T04:08:01.907Z,10.06
2022-11-08T04:10:29.184Z,10.01
2022-11-08T04:13:17.870Z,10.08
2022-11-08T04:15:46.535Z,10.09
2022-11-08T04:18:36.631Z,10.07
2022-11-08T04:21:22.338Z,10.07
2022-11-08T04:23:52.309Z,10.06
2022-11-08T04:26:21.511Z,10.05
2022-11-08T04:28:48.688Z,10.06
2022-11-08T04:31:18.739Z,10.03
2022-11-08T04:33:46.233Z,10.01
2022-11-08T04:36:16.273Z,9.95
2022-11-08T04:38:44.087Z,9.99
2022-11-08T04:41:15.401Z,9.96
2022-11-08T04:43:43.091Z,9.96
2022-11-08T04:46:12.662Z,9.92
2022-11-08T04:48:40.827Z,9.96
2022-11-08T04:51:13.517Z,9.95
2022-11-08T04:53:40.938Z,9.95
2022-11-08T04:56:11.213Z,9.96
2022-11-08T04:58:43.609Z,9.96
2022-11-08T05:01:13.822Z,9.98
2022-11-08T05:03:41.311Z,9.97
2022-11-08T05:06:12.313Z,10.03
2022-11-08T05:08:39.843Z,10.02
2022-11-08T05:11:15.438Z,10.02
2022-11-08T05:13:43.405Z,10.01
2022-11-08T05:16:13.244Z,10.01
2022-11-08T05:18:42.046Z,10.03
2022-11-08T05:21:30.528Z,10.03
2022-11-08T05:24:02.062Z,10.03
2022-11-08T05:26:29.742Z,9.96
2022-11-08T05:28:56.772Z,9.95
2022-11-08T05:31:23.970Z,9.99
2022-11-08T05:33:52.880Z,10.03
2022-11-08T05:36:20.328Z,10.04
2022-11-08T05:38:47.401Z,10.06
2022-11-08T05:41:18.129Z,10.05
2022-11-08T05:43:47.044Z,9.97
2022-11-08T05:46:15.027Z,10.01
2022-11-08T05:48:42.943Z,10.06
2022-11-08T05:51:12.150Z,10.08
2022-11-08T05:53:39.814Z,10.04
2022-11-08T05:56:07.812Z,10.11
2022-11-08T05:58:36.747Z,10.10
2022-11-08T06:01:13.086Z,10.01
2022-11-08T06:03:40.526Z,10.09
2022-11-08T06:06:15.948Z,10.09
2022-11-08T06:08:46.266Z,10.07
2022-11-08T06:11:21.428Z,10.05
2022-11-08T06:13:48.811Z,10.05
2022-11-08T06:16:17.387Z,10.06
2022-11-08T06:18:44.937Z,10.04
2022-11-08T06:21:15.164Z,10.04
2022-11-08T06:23:43.023Z,9.96
2022-11-08T06:26:10.529Z,10.02
2022-11-08T06:28:37.816Z,10.02
2022-11-08T06:31:06.098Z,10.07
2022-11-08T06:33:33.648Z,10.10
2022-11-08T06:36:00.669Z,10.05
2022-11-08T06:38:28.152Z,10.04
2022-11-08T06:40:58.514Z,10.05
2022-11-08T06:43:25.908Z,10.05
2022-11-08T06:45:53.484Z,10.05
2022-11-08T06:48:20.518Z,10.06
2022-11-08T06:50:48.210Z,10.00
2022-11-08T06:53:15.817Z,10.02
2022-11-08T06:55:43.049Z,10.01
2022-11-08T06:58:11.004Z,10.02
2022-11-08T07:00:38.260Z,10.04
2022-11-08T07:03:05.559Z,10.03
2022-11-08T07:05:34.837Z,10.05
2022-11-08T07:08:04.222Z,10.04
2022-11-08T07:10:33.135Z,9.99
2022-11-08T07:13:05.941Z,10.03
2022-11-08T07:15:35.005Z,10.03
2022-11-08T07:18:04.242Z,10.02
2022-11-08T07:20:31.349Z,10.01
2022-11-08T07:22:58.679Z,10.06
2022-11-08T07:25:27.263Z,10.04
2022-11-08T07:27:59.515Z,10.04
2022-11-08T07:30:28.076Z,10.02
2022-11-08T07:32:57.180Z,10.08
2022-11-08T07:35:26.031Z,10.09
2022-11-08T07:37:53.535Z,10.14
2022-11-08T07:40:20.739Z,10.16
2022-11-08T07:45:35.249Z,10.22
2022-11-08T07:48:11.582Z,10.23
2022-11-08T07:50:40.628Z,10.30
2022-11-08T07:53:08.371Z,10.33
2022-11-08T07:55:38.335Z,10.24
2022-11-08T07:58:06.789Z,10.40
2022-11-08T08:00:36.902Z,10.45
2022-11-08T08:03:06.188Z,10.49
2022-11-08T08:05:39.548Z,10.54
2022-11-08T08:08:07.295Z,10.56
2022-11-08T08:10:35.041Z,10.63
2022-11-08T08:13:02.334Z,10.65
2022-11-08T08:15:29.545Z,10.70
2022-11-08T08:18:00.695Z,10.74
2022-11-08T08:20:28.646Z,10.82
2022-11-08T08:22:56.006Z,10.86
2022-11-08T08:25:23.353Z,10.83
2022-11-08T08:27:55.149Z,10.91
2022-11-08T08:30:23.397Z,10.97
2022-11-08T08:33:08.411Z,11.00
2022-11-08T08:35:38.701Z,10.99
2022-11-08T08:38:07.154Z,11.04
2022-11-08T08:40:34.939Z,11.08
2022-11-08T08:43:03.478Z,11.09
2022-11-08T08:45:32.156Z,11.13
2022-11-08T08:48:00.029Z,11.09
2022-11-08T08:50:29.422Z,11.12
2022-11-08T08:53:04.181Z,11.10
2022-11-08T08:55:32.070Z,11.09
2022-11-08T08:57:59.130Z,11.14
2022-11-08T09:03:14.687Z,11.12
2022-11-08T09:05:44.053Z,11.15
2022-11-08T09:08:11.882Z,11.13
2022-11-08T09:10:39.001Z,11.14
2022-11-08T09:13:06.292Z,11.25
2022-11-08T09:15:33.674Z,11.27
2022-11-08T09:18:00.950Z,11.30
2022-11-08T09:20:28.242Z,11.30
2022-11-08T09:22:55.272Z,11.33
2022-11-08T09:25:22.553Z,11.29
2022-11-08T09:27:49.590Z,11.33
2022-11-08T09:30:16.688Z,11.29
2022-11-08T09:33:00.341Z,11.37
2022-11-08T09:35:29.072Z,11.34
2022-11-08T09:37:57.074Z,11.36
2022-11-08T09:40:33.199Z,11.43
2022-11-08T09:43:27.169Z,11.39
2022-11-08T09:45:57.190Z,11.50
2022-11-08T09:48:30.161Z,11.54
2022-11-08T09:51:00.570Z,11.59
2022-11-08T09:53:38.402Z,11.56
2022-11-08T09:56:32.988Z,11.62
2022-11-08T09:59:02.660Z,11.69
2022-11-08T10:01:32.818Z,11.68
2022-11-08T10:04:06.543Z,11.71
2022-11-08T10:06:47.590Z,11.78
2022-11-08T10:10:02.733Z,11.87
2022-11-08T10:12:36.589Z,11.94
2022-11-08T10:15:36.624Z,12.01
2022-11-08T10:18:18.227Z,12.01
2022-11-08T10:20:56.877Z,12.06
2022-11-08T10:23:37.047Z,12.10
2022-11-08T10:26:16.174Z,12.14
2022-11-08T10:29:01.953Z,12.10
2022-11-08T10:31:35.091Z,12.19
2022-11-08T10:34:09.826Z,12.23
2022-11-08T10:36:47.438Z,12.25
2022-11-08T10:39:22.958Z,12.28
2022-11-08T10:41:56.881Z,12.28
2022-11-08T10:44:25.936Z,12.22
2022-11-08T10:46:55.890Z,12.24
2022-11-08T10:49:27.913Z,12.25
2022-11-08T10:51:57.852Z,12.27
2022-11-08T10:54:58.374Z,12.30
2022-11-08T10:57:25.809Z,12.37
2022-11-08T10:59:53.930Z,12.39
2022-11-08T11:02:20.983Z,12.47
2022-11-08T11:04:48.803Z,12.53
2022-11-08T11:07:46.368Z,12.60
2022-11-08T11:10:23.659Z,12.61
2022-11-08T11:13:01.234Z,12.73
2022-11-08T11:15:37.320Z,12.81
2022-11-08T11:18:17.126Z,12.81
2022-11-08T11:21:17.381Z,12.84
2022-11-08T11:23:47.208Z,12.88
2022-11-08T11:26:39.004Z,12.91
2022-11-08T11:29:06.441Z,12.96
2022-11-08T11:31:36.334Z,12.98
2022-11-08T11:34:40.138Z,13.03
2022-11-08T11:37:10.677Z,13.06
2022-11-08T11:39:49.991Z,13.12
2022-11-08T11:45:21.600Z,13.19
2022-11-08T11:47:53.272Z,13.20
2022-11-08T11:50:32.390Z,13.22
2022-11-08T11:53:05.134Z,13.21
2022-11-08T11:55:49.369Z,13.16
2022-11-08T11:58:36.216Z,13.14
2022-11-08T12:01:15.678Z,13.11
2022-11-08T12:04:16.432Z,13.19
2022-11-08T12:07:05.211Z,13.25
2022-11-08T12:09:38.780Z,13.29
2022-11-08T12:12:24.920Z,13.36
2022-11-08T12:15:23.682Z,13.45
2022-11-08T12:18:09.583Z,13.58
2022-11-08T12:20:46.324Z,13.61
2022-11-08T12:23:38.564Z,13.63
2022-11-08T12:26:49.687Z,13.67
2022-11-08T12:29:38.312Z,13.71
2022-11-08T12:32:35.782Z,13.73
2022-11-08T12:35:20.827Z,13.77
2022-11-08T12:38:16.253Z,13.82
2022-11-08T12:41:40.733Z,13.84
2022-11-08T12:44:39.605Z,13.80
2022-11-08T12:47:31.320Z,13.79
2022-11-08T12:50:11.394Z,13.80
2022-11-08T12:52:47.617Z,13.78
2022-11-08T12:55:26.756Z,13.75
2022-11-08T12:57:57.769Z,13.75
2022-11-08T13:00:28.537Z,13.81
2022-11-08T13:03:10.712Z,13.81
2022-11-08T13:05:43.520Z,13.78
2022-11-08T13:08:28.479Z,13.77
2022-11-08T13:10:55.743Z,13.79
2022-11-08T13:13:54.886Z,13.79
2022-11-08T13:16:25.407Z,13.81
2022-11-08T13:18:54.848Z,13.76
2022-11-08T13:21:28.137Z,13.83
2022-11-08T13:24:43.408Z,13.83
2022-11-08T13:27:30.580Z,13.84
2022-11-08T13:30:22.357Z,13.83
2022-11-08T13:33:00.371Z,13.85
2022-11-08T13:35:30.087Z,13.88
2022-11-08T13:38:11.717Z,13.88
2022-11-08T13:40:59.894Z,13.89
2022-11-08T13:43:30.082Z,13.85
2022-11-08T13:46:20.516Z,13.88
2022-11-08T13:49:05.208Z,13.85
2022-11-08T13:51:38.425Z,13.86
2022-11-08T13:54:29.696Z,13.81
2022-11-08T13:56:58.788Z,13.81
2022-11-08T13:59:32.107Z,13.77
2022-11-08T14:01:59.531Z,13.73
2022-11-08T14:04:33.685Z,13.70
2022-11-08T14:07:13.961Z,13.69
2022-11-08T14:09:45.606Z,13.67
2022-11-08T14:12:50.728Z,13.67
2022-11-08T14:15:29.917Z,13.68
2022-11-08T14:18:15.460Z,13.68
2022-11-08T14:20:48.163Z,13.61
2022-11-08T14:23:18.301Z,13.61
2022-11-08T14:25:58.568Z,13.54
2022-11-08T14:28:34.319Z,13.53
2022-11-08T14:31:03.696Z,13.51
2022-11-08T14:33:32.598Z,13.45
2022-11-08T14:36:03.739Z,13.39
2022-11-08T14:38:35.385Z,13.44
2022-11-08T14:41:05.202Z,13.39
2022-11-08T14:43:42.472Z,13.43
2022-11-08T14:46:14.289Z,13.43
2022-11-08T14:48:54.793Z,13.43
2022-11-08T14:51:22.046Z,13.44
2022-11-08T14:53:54.239Z,13.41
2022-11-08T14:56:24.024Z,13.43
2022-11-08T14:58:53.367Z,13.47
2022-11-08T15:01:26.221Z,13.39
2022-11-08T15:03:58.117Z,13.41
2022-11-08T15:06:42.025Z,13.42
2022-11-08T15:09:33.681Z,13.46
2022-11-08T15:12:07.638Z,13.41
2022-11-08T15:14:36.781Z,13.43
2022-11-08T15:17:04.168Z,13.37
2022-11-08T15:19:46.128Z,13.48
2022-11-08T15:22:30.165Z,13.50
2022-11-08T15:25:15.579Z,13.50
2022-11-08T15:27:55.865Z,13.49
2022-11-08T15:30:34.206Z,13.47
2022-11-08T15:33:03.250Z,13.39
2022-11-08T15:35:39.573Z,13.41
2022-11-08T15:38:31.175Z,13.38
2022-11-08T15:41:00.857Z,13.34
2022-11-08T15:43:33.572Z,13.35
2022-11-08T15:46:02.773Z,13.31
2022-11-08T15:48:30.585Z,13.27
2022-11-08T15:50:58.647Z,13.26
2022-11-08T15:53:27.344Z,13.22
2022-11-08T15:56:01.235Z,13.18
2022-11-08T15:58:33.172Z,13.20
2022-11-08T16:01:02.001Z,13.17
2022-11-08T16:03:29.533Z,13.15
2022-11-08T16:05:59.732Z,13.12
2022-11-08T16:08:29.952Z,13.05
2022-11-08T16:11:01.188Z,13.02
2022-11-08T16:13:39.061Z,12.94
2022-11-08T16:16:17.773Z,12.91
2022-11-08T16:18:45.329Z,12.88
2022-11-08T16:21:13.929Z,12.88
2022-11-08T16:23:42.091Z,12.83
2022-11-08T16:26:16.296Z,12.78
2022-11-08T16:28:43.796Z,12.73
2022-11-08T16:31:17.672Z,12.62
2022-11-08T16:33:46.227Z,12.65
2022-11-08T16:36:22.125Z,12.64
2022-11-08T16:38:52.386Z,12.59
2022-11-08T16:41:20.900Z,12.63
2022-11-08T16:43:48.035Z,12.60
2022-11-08T16:46:15.312Z,12.57
2022-11-08T16:48:52.984Z,12.54
2022-11-08T16:51:21.627Z,12.49
2022-11-08T16:53:49.358Z,12.50
2022-11-08T16:56:17.231Z,12.39
2022-11-08T16:58:44.587Z,12.45
2022-11-08T17:01:14.953Z,12.43
2022-11-08T17:03:42.013Z,12.41
2022-11-08T17:06:14.713Z,12.41
2022-11-08T17:08:41.731Z,12.37
2022-11-08T17:11:15.088Z,12.39
2022-11-08T17:13:42.351Z,12.38
2022-11-08T17:16:11.603Z,12.43
2022-11-08T17:18:38.625Z,12.44
2022-11-08T17:21:37.755Z,12.44
2022-11-08T17:23:58.118Z,12.52
2022-11-08T17:26:25.246Z,12.47
2022-11-08T17:28:55.487Z,12.56
2022-11-08T17:31:22.551Z,12.57
2022-11-08T17:33:49.667Z,12.59
2022-11-08T17:36:16.711Z,12.57
2022-11-08T17:38:43.796Z,12.54
2022-11-08T17:41:15.373Z,12.57
2022-11-08T17:43:43.360Z,12.60
2022-11-08T17:46:13.314Z,12.62
2022-11-08T17:48:40.986Z,12.64
2022-11-08T17:51:08.800Z,12.63
2022-11-08T17:53:38.909Z,12.63
2022-11-08T17:56:06.666Z,12.59
2022-11-08T17:58:34.329Z,12.53
2022-11-08T18:01:04.177Z,12.51
2022-11-08T18:03:32.026Z,12.48
2022-11-08T18:06:05.226Z,12.42
2022-11-08T18:08:34.132Z,12.42
2022-11-08T18:11:02.165Z,12.40
2022-11-08T18:13:29.819Z,12.37
2022-11-08T18:16:06.473Z,12.34
2022-11-08T18:18:33.619Z,12.34
2022-11-08T18:21:00.704Z,12.35
2022-11-08T18:23:30.511Z,12.37
2022-11-08T18:25:58.177Z,12.39
2022-11-08T18:28:25.503Z,12.37
2022-11-08T18:30:52.555Z,12.46
2022-11-08T18:33:21.633Z,12.47
2022-11-08T18:35:48.943Z,12.51
2022-11-08T18:38:15.959Z,12.55
2022-11-08T18:40:45.582Z,12.55
2022-11-08T18:43:12.646Z,12.57
2022-11-08T18:45:39.734Z,12.61
2022-11-08T18:48:06.824Z,12.61
2022-11-08T18:50:36.408Z,12.60
2022-11-08T18:53:06.923Z,12.56
2022-11-08T18:55:34.759Z,12.51
2022-11-08T18:58:02.417Z,12.53
2022-11-08T19:00:29.427Z,12.51
2022-11-08T19:02:57.297Z,12.52
2022-11-08T19:05:24.362Z,12.54
2022-11-08T19:07:51.413Z,12.48
2022-11-08T19:10:18.987Z,12.48
2022-11-08T19:12:45.982Z,12.48
2022-11-08T19:15:13.040Z,12.44
2022-11-08T19:17:40.096Z,12.48
2022-11-08T19:20:07.415Z,12.46
2022-11-08T19:22:34.492Z,12.43
2022-11-08T19:25:01.667Z,12.39
2022-11-08T19:27:28.716Z,12.34
2022-11-08T19:29:55.902Z,12.24
2022-11-08T19:32:23.247Z,12.28
2022-11-08T19:34:50.328Z,12.27
2022-11-08T19:37:17.321Z,12.13
2022-11-08T19:39:45.407Z,12.17
2022-11-08T19:42:12.446Z,12.24
2022-11-08T19:44:39.582Z,12.24
2022-11-08T19:47:06.658Z,12.27
2022-11-08T19:49:35.522Z,12.23
2022-11-08T19:52:03.299Z,12.21
2022-11-08T19:54:30.387Z,12.20
2022-11-08T19:57:06.487Z,12.25
2022-11-08T19:59:33.681Z,12.23
2022-11-08T20:02:00.860Z,12.22
2022-11-08T20:04:28.306Z,12.26
2022-11-08T20:06:55.446Z,12.23
2022-11-08T20:09:27.403Z,12.08
2022-11-08T20:12:00.014Z,12.17
2022-11-08T20:14:27.357Z,12.17
2022-11-08T20:16:59.813Z,12.13
2022-11-08T20:19:29.704Z,12.14
2022-11-08T20:21:57.897Z,12.07
2022-11-08T20:24:25.008Z,12.13
2022-11-08T20:26:52.074Z,12.13
2022-11-08T20:29:19.259Z,12.10
2022-11-08T20:31:46.300Z,12.13
2022-11-08T20:34:13.431Z,12.10
2022-11-08T20:36:41.605Z,12.13
2022-11-08T20:39:11.114Z,12.16
2022-11-08T20:41:39.086Z,12.18
2022-11-08T20:44:10.620Z,12.23
2022-11-08T20:46:38.071Z,12.22
2022-11-08T20:49:05.378Z,12.18
2022-11-08T20:51:33.004Z,12.18
2022-11-08T20:54:00.971Z,12.23
2022-11-08T20:56:30.768Z,12.20
2022-11-08T20:58:58.273Z,12.15
2022-11-08T21:01:29.128Z,12.13
2022-11-08T21:03:59.208Z,12.09
2022-11-08T21:06:28.381Z,12.03
2022-11-08T21:08:59.935Z,12.00
2022-11-08T21:11:30.378Z,11.97
2022-11-08T21:13:58.394Z,11.95
2022-11-08T21:16:33.075Z,11.92
2022-11-08T21:19:08.839Z,11.88
2022-11-08T21:21:39.083Z,11.89
2022-11-08T21:24:06.840Z,11.85
2022-11-08T21:26:36.489Z,11.81
2022-11-08T21:29:05.188Z,11.78
2022-11-08T21:31:33.481Z,11.81
2022-11-08T21:34:00.547Z,11.77
2022-11-08T21:36:29.148Z,11.70
2022-11-08T21:38:56.411Z,11.68
2022-11-08T21:41:23.996Z,11.73
2022-11-08T21:43:51.031Z,11.72
2022-11-08T21:46:25.215Z,11.71
2022-11-08T21:48:59.629Z,11.67
2022-11-08T21:51:30.451Z,11.64
2022-11-08T21:53:58.941Z,11.63
2022-11-08T21:56:29.761Z,11.62
2022-11-08T21:59:00.766Z,11.62
2022-11-08T22:01:30.622Z,11.63
2022-11-08T22:03:59.640Z,11.57
2022-11-08T22:06:28.240Z,11.63
2022-11-08T22:08:55.546Z,11.62
2022-11-08T22:11:22.675Z,11.64
2022-11-08T22:13:49.787Z,11.65
2022-11-08T22:16:16.777Z,11.63
2022-11-08T22:19:06.421Z,11.64
2022-11-08T22:21:40.990Z,11.66
2022-11-08T22:24:17.943Z,11.68
2022-11-08T22:26:45.546Z,11.68
2022-11-08T22:29:12.982Z,11.69
2022-11-08T22:31:40.257Z,11.67
2022-11-08T22:34:11.021Z,11.72
2022-11-08T22:36:44.382Z,11.76
2022-11-08T22:39:16.954Z,11.79
2022-11-08T22:41:45.629Z,11.82
2022-11-08T22:44:13.329Z,11.83
2022-11-08T22:46:41.997Z,11.79
2022-11-08T22:49:13.153Z,11.85
2022-11-08T22:51:41.108Z,11.86
2022-11-08T22:54:08.975Z,11.83
2022-11-08T22:56:37.012Z,11.79
2022-11-08T22:59:04.493Z,11.76
2022-11-08T23:01:33.258Z,11.72
2022-11-08T23:04:00.439Z,11.69
2022-11-08T23:06:28.230Z,11.61
2022-11-08T23:08:55.372Z,11.61
2022-11-08T23:11:41.240Z,11.61
2022-11-08T23:14:32.300Z,11.64
2022-11-08T23:17:02.468Z,11.68
2022-11-08T23:19:48.019Z,11.63
2022-11-08T23:22:35.394Z,11.69
2022-11-08T23:25:02.414Z,11.70
2022-11-08T23:27:47.793Z,11.72
2022-11-08T23:30:35.678Z,11.78
2022-11-08T23:33:04.134Z,11.81
2022-11-08T23:35:31.166Z,11.80
2022-11-08T23:37:58.336Z,11.82
2022-11-08T23:40:44.256Z,11.82
2022-11-08T23:43:37.963Z,11.82
2022-11-08T23:46:10.663Z,11.82
2022-11-08T23:48:39.342Z,11.80
2022-11-08T23:51:07.600Z,11.78
2022-11-08T23:53:36.837Z,11.72
2022-11-08T23:56:05.171Z,11.71
2022-11-08T23:58:33.179Z,11.66
